createdAt,value
2019-05-01T00:00:16.636Z,6.5
2019-05-01T00:01:02.728Z,6.5
2019-05-01T00:02:02.964Z,6.5
2019-05-01T00:03:03.792Z,6.6
2019-05-01T00:04:03.759Z,6.5
2019-05-01T00:05:03.719Z,6.5
2019-05-01T00:06:03.550Z,6.5
2019-05-01T00:07:03.469Z,6.5
2019-05-01T00:08:03.266Z,6.5
2019-05-01T00:09:03.405Z,6.5
2019-05-01T00:10:03.356Z,6.4
2019-05-01T00:11:03.215Z,6.4
2019-05-01T00:12:03.378Z,6.5
2019-05-01T00:13:03.451Z,6.4
2019-05-01T00:14:03.422Z,6.4
2019-05-01T00:15:03.709Z,6.4
2019-05-01T00:16:03.235Z,6.4
2019-05-01T00:17:03.372Z,6.4
2019-05-01T00:18:03.695Z,6.4
2019-05-01T00:19:02.119Z,6.3
2019-05-01T00:20:03.763Z,6.3
2019-05-01T00:21:03.130Z,6.3
2019-05-01T00:22:03.007Z,6.3
2019-05-01T00:23:03.057Z,6.1
2019-05-01T00:24:03.341Z,6.1
2019-05-01T00:25:02.980Z,6.1
2019-05-01T00:26:02.930Z,6.1
2019-05-01T00:27:03.234Z,6.1
2019-05-01T00:28:02.888Z,6.1
2019-05-01T00:29:03.074Z,6.1
2019-05-01T00:30:03.837Z,6.1
2019-05-01T00:31:03.002Z,6.1
2019-05-01T00:32:02.912Z,6.1
2019-05-01T00:33:03.797Z,6.1
2019-05-01T00:34:03.746Z,6.1
2019-05-01T00:35:03.952Z,6.1
2019-05-01T00:36:03.771Z,6.1
2019-05-01T00:37:03.674Z,6.1
2019-05-01T00:38:03.499Z,6.1
2019-05-01T00:39:03.752Z,6.1
2019-05-01T00:40:03.706Z,6.1
2019-05-01T00:41:03.460Z,6.1
2019-05-01T00:42:03.298Z,6.1
2019-05-01T00:43:03.361Z,6
2019-05-01T00:44:03.370Z,6.1
2019-05-01T00:45:03.382Z,6.1
2019-05-01T00:46:04.002Z,6.1
2019-05-01T00:47:03.051Z,6.1
2019-05-01T00:48:03.728Z,6.1
2019-05-01T00:49:03.516Z,6.1
2019-05-01T00:50:03.370Z,6.2
2019-05-01T00:51:03.231Z,6.2
2019-05-01T00:52:03.124Z,6.2
2019-05-01T00:53:03.056Z,6.2
2019-05-01T00:54:03.028Z,6.3
2019-05-01T00:55:03.521Z,6.2
2019-05-01T00:56:03.223Z,6.3
2019-05-01T00:57:03.213Z,6.3
2019-05-01T00:58:03.370Z,6.3
2019-05-01T00:59:03.129Z,6.3
2019-05-01T01:00:03.528Z,6.3
2019-05-01T01:01:03.234Z,6.3
2019-05-01T01:02:03.240Z,6.3
2019-05-01T01:03:02.983Z,6.3
2019-05-01T01:04:02.754Z,6.2
2019-05-01T01:05:02.979Z,6.2
2019-05-01T01:06:03.346Z,6.2
2019-05-01T01:07:02.841Z,6.2
2019-05-01T01:08:03.018Z,6.3
2019-05-01T01:09:03.004Z,6.3
2019-05-01T01:10:03.081Z,6.2
2019-05-01T01:11:03.777Z,6.1
2019-05-01T01:12:03.666Z,6.1
2019-05-01T01:13:02.901Z,6.1
2019-05-01T01:14:03.486Z,6.1
2019-05-01T01:15:03.083Z,6.1
2019-05-01T01:16:04.248Z,6.1
2019-05-01T01:17:03.739Z,6.1
2019-05-01T01:18:03.511Z,6.1
2019-05-01T01:19:03.049Z,6
2019-05-01T01:20:03.810Z,5.9
2019-05-01T01:21:03.635Z,5.9
2019-05-01T01:22:03.767Z,5.9
2019-05-01T01:23:03.509Z,5.9
2019-05-01T01:24:03.746Z,5.9
2019-05-01T01:25:03.384Z,5.9
2019-05-01T01:26:03.542Z,5.9
2019-05-01T01:27:03.296Z,5.9
2019-05-01T01:28:03.318Z,5.9
2019-05-01T01:29:03.239Z,5.9
2019-05-01T01:30:03.634Z,5.9
2019-05-01T01:31:03.313Z,5.9
2019-05-01T01:32:03.476Z,5.9
2019-05-01T01:33:03.478Z,5.9
2019-05-01T01:34:03.320Z,5.9
2019-05-01T01:35:03.137Z,5.9
2019-05-01T01:36:03.186Z,6
2019-05-01T01:37:03.096Z,5.9
2019-05-01T01:38:02.889Z,6
2019-05-01T01:39:02.858Z,5.9
2019-05-01T01:40:02.893Z,5.9
2019-05-01T01:41:02.925Z,6
2019-05-01T01:42:02.716Z,5.9
2019-05-01T01:43:02.655Z,5.9
2019-05-01T01:44:03.732Z,5.9
2019-05-01T01:45:03.644Z,6
2019-05-01T01:46:03.731Z,6
2019-05-01T01:47:03.564Z,5.9
2019-05-01T01:48:03.770Z,5.9
2019-05-01T01:49:03.287Z,5.9
2019-05-01T01:50:03.862Z,5.2
2019-05-01T01:51:03.286Z,5
2019-05-01T01:52:03.368Z,5
2019-05-01T01:53:03.146Z,5
2019-05-01T01:54:03.091Z,5.1
2019-05-01T01:55:03.467Z,5.1
2019-05-01T01:56:03.065Z,5.1
2019-05-01T01:57:03.369Z,5.1
2019-05-01T01:58:03.095Z,5
2019-05-01T01:59:03.022Z,5
2019-05-01T02:00:03.337Z,5
2019-05-01T02:01:10.051Z,4.9
2019-05-01T02:02:03.024Z,4.7
2019-05-01T02:03:02.722Z,4.8
2019-05-01T02:04:02.745Z,4.8
2019-05-01T02:05:02.947Z,4.8
2019-05-01T02:06:03.769Z,4.8
2019-05-01T02:07:03.613Z,4.8
2019-05-01T02:08:02.820Z,4.8
2019-05-01T02:09:03.621Z,4.8
2019-05-01T02:10:03.898Z,4.9
2019-05-01T02:11:03.405Z,5.1
2019-05-01T02:12:03.822Z,5.1
2019-05-01T02:13:03.419Z,5.2
2019-05-01T02:14:03.499Z,5.1
2019-05-01T02:15:03.514Z,5.1
2019-05-01T02:16:03.150Z,5.1
2019-05-01T02:17:03.561Z,5.1
2019-05-01T02:18:03.454Z,5
2019-05-01T02:19:03.505Z,5
2019-05-01T02:20:03.233Z,5
2019-05-01T02:21:03.180Z,5.1
2019-05-01T02:22:03.253Z,5
2019-05-01T02:23:03.376Z,5.1
2019-05-01T02:24:03.210Z,5.1
2019-05-01T02:25:03.404Z,4.8
2019-05-01T02:26:03.131Z,4.7
2019-05-01T02:27:01.697Z,4.6
2019-05-01T02:28:02.946Z,4.6
2019-05-01T02:29:02.897Z,4.6
2019-05-01T02:30:04.013Z,4.6
2019-05-01T02:31:02.942Z,4.4
2019-05-01T02:32:02.734Z,4.5
2019-05-01T02:33:02.915Z,4.5
2019-05-01T02:34:03.016Z,4.4
2019-05-01T02:35:02.907Z,4.3
2019-05-01T02:36:03.644Z,4.3
2019-05-01T02:37:03.695Z,4.3
2019-05-01T02:38:03.578Z,4.3
2019-05-01T02:39:03.741Z,4.2
2019-05-01T02:40:03.443Z,4.3
2019-05-01T02:41:03.656Z,4.3
2019-05-01T02:42:03.487Z,4.2
2019-05-01T02:43:03.664Z,4.2
2019-05-01T02:44:03.554Z,4.2
2019-05-01T02:45:03.722Z,4.2
2019-05-01T02:46:03.759Z,4.3
2019-05-01T02:47:03.387Z,4.3
2019-05-01T02:48:03.400Z,4.3
2019-05-01T02:49:03.414Z,4.3
2019-05-01T02:50:03.504Z,4.3
2019-05-01T02:51:03.237Z,4.3
2019-05-01T02:52:02.991Z,4.2
2019-05-01T02:53:03.355Z,4.2
2019-05-01T02:54:03.282Z,4.1
2019-05-01T02:55:03.086Z,4.2
2019-05-01T02:56:03.191Z,4.2
2019-05-01T02:57:03.139Z,4.2
2019-05-01T02:58:03.599Z,4.2
2019-05-01T02:59:03.171Z,4.3
2019-05-01T03:00:03.545Z,4.3
2019-05-01T03:01:03.245Z,4.3
2019-05-01T03:02:03.426Z,4.3
2019-05-01T03:03:03.067Z,4.3
2019-05-01T03:04:02.992Z,4.2
2019-05-01T03:05:03.020Z,4.2
2019-05-01T03:06:03.016Z,4.2
2019-05-01T03:07:03.230Z,4.1
2019-05-01T03:08:03.620Z,4
2019-05-01T03:09:03.232Z,4.1
2019-05-01T03:10:03.120Z,4.1
2019-05-01T03:11:02.740Z,4.1
2019-05-01T03:12:03.085Z,4
2019-05-01T03:13:03.750Z,4.1
2019-05-01T03:14:02.949Z,4.1
2019-05-01T03:15:03.097Z,4
2019-05-01T03:16:02.881Z,4.1
2019-05-01T03:17:02.621Z,4.1
2019-05-01T03:18:03.131Z,3.9
2019-05-01T03:19:03.699Z,4
2019-05-01T03:20:03.799Z,4
2019-05-01T03:21:03.652Z,3.9
2019-05-01T03:22:03.591Z,3.9
2019-05-01T03:23:03.615Z,3.8
2019-05-01T03:24:03.070Z,3.8
2019-05-01T03:25:03.729Z,3.8
2019-05-01T03:26:03.413Z,3.7
2019-05-01T03:27:03.480Z,3.7
2019-05-01T03:28:03.381Z,3.6
2019-05-01T03:29:03.448Z,3.6
2019-05-01T03:30:03.409Z,3.4
2019-05-01T03:31:03.381Z,3.5
2019-05-01T03:32:19.960Z,3.4
2019-05-01T03:33:03.389Z,3.4
2019-05-01T03:34:03.001Z,3.5
2019-05-01T03:35:03.024Z,3.5
2019-05-01T03:36:03.153Z,3.5
2019-05-01T03:37:02.862Z,3.5
2019-05-01T03:38:03.010Z,3.4
2019-05-01T03:39:03.553Z,3.4
2019-05-01T03:40:02.847Z,3.4
2019-05-01T03:41:04.400Z,3.4
2019-05-01T03:42:02.917Z,3.4
2019-05-01T03:43:03.639Z,3.3
2019-05-01T03:44:03.644Z,3.3
2019-05-01T03:45:03.757Z,3.3
2019-05-01T03:46:03.597Z,3.3
2019-05-01T03:47:03.542Z,3.4
2019-05-01T03:48:03.531Z,3.5
2019-05-01T03:49:03.542Z,3.4
2019-05-01T03:50:03.336Z,3.4
2019-05-01T03:51:03.444Z,3.5
2019-05-01T03:52:03.459Z,3.4
2019-05-01T03:53:03.413Z,3.5
2019-05-01T03:54:03.229Z,3.4
2019-05-01T03:55:03.285Z,3.5
2019-05-01T03:56:03.107Z,3.6
2019-05-01T03:57:03.077Z,3.8
2019-05-01T03:58:03.343Z,3.9
2019-05-01T03:59:03.058Z,4
2019-05-01T04:00:03.226Z,4
2019-05-01T04:01:02.840Z,4
2019-05-01T04:02:02.873Z,4.1
2019-05-01T04:03:03.790Z,4.2
2019-05-01T04:04:02.979Z,4.2
2019-05-01T04:05:03.203Z,4.3
2019-05-01T04:06:03.116Z,4.4
2019-05-01T04:07:02.961Z,4.4
2019-05-01T04:08:03.828Z,4.4
2019-05-01T04:09:03.096Z,4.4
2019-05-01T04:10:03.779Z,4.4
2019-05-01T04:11:03.386Z,4.4
2019-05-01T04:12:03.475Z,4.5
2019-05-01T04:13:03.760Z,4.5
2019-05-01T04:14:03.640Z,4.6
2019-05-01T04:15:03.364Z,4.6
2019-05-01T04:16:03.666Z,4.6
2019-05-01T04:17:03.535Z,4.6
2019-05-01T04:18:03.605Z,4.6
2019-05-01T04:19:03.394Z,4.6
2019-05-01T04:20:03.454Z,4.6
2019-05-01T04:21:03.276Z,4.6
2019-05-01T04:22:03.359Z,4.6
2019-05-01T04:23:03.310Z,4.6
2019-05-01T04:24:03.331Z,4.6
2019-05-01T04:25:03.362Z,4.7
2019-05-01T04:26:03.117Z,4.7
2019-05-01T04:27:02.793Z,4.7
2019-05-01T04:28:03.278Z,4.7
2019-05-01T04:29:03.199Z,4.7
2019-05-01T04:30:02.956Z,4.7
2019-05-01T04:31:03.771Z,4.7
2019-05-01T04:32:02.786Z,4.7
2019-05-01T04:33:02.985Z,4.7
2019-05-01T04:34:04.121Z,4.7
2019-05-01T04:35:03.777Z,4.7
2019-05-01T04:36:03.919Z,4.8
2019-05-01T04:37:03.672Z,4.8
2019-05-01T04:38:03.493Z,4.8
2019-05-01T04:39:03.911Z,4.8
2019-05-01T04:40:03.578Z,4.8
2019-05-01T04:41:03.723Z,4.8
2019-05-01T04:42:03.603Z,4.7
2019-05-01T04:43:03.777Z,4.7
2019-05-01T04:44:03.338Z,4.8
2019-05-01T04:45:03.637Z,4.8
2019-05-01T04:46:03.262Z,4.8
2019-05-01T04:47:03.410Z,4.8
2019-05-01T04:48:03.337Z,4.9
2019-05-01T04:49:03.210Z,4.9
2019-05-01T04:50:03.113Z,4.9
2019-05-01T04:51:03.167Z,4.9
2019-05-01T04:52:03.167Z,4.9
2019-05-01T04:53:03.035Z,4.9
2019-05-01T04:54:03.262Z,4.9
2019-05-01T04:55:03.137Z,4.9
2019-05-01T04:56:03.486Z,4.9
2019-05-01T04:57:03.299Z,4.9
2019-05-01T04:58:02.012Z,5
2019-05-01T04:59:03.363Z,5.1
2019-05-01T05:00:03.318Z,5.1
2019-05-01T05:01:03.101Z,5.1
2019-05-01T05:02:03.014Z,5.1
2019-05-01T05:03:05.649Z,5.2
2019-05-01T05:04:03.009Z,5.2
2019-05-01T05:05:03.040Z,5.2
2019-05-01T05:06:03.757Z,5.3
2019-05-01T05:07:03.236Z,5.3
2019-05-01T05:08:03.734Z,5.4
2019-05-01T05:09:02.845Z,5.5
2019-05-01T05:10:03.046Z,5.8
2019-05-01T05:11:02.959Z,6.6
2019-05-01T05:12:03.953Z,6.9
2019-05-01T05:13:03.572Z,7.1
2019-05-01T05:14:03.774Z,7.6
2019-05-01T05:15:03.927Z,7.4
2019-05-01T05:16:03.566Z,6.8
2019-05-01T05:17:03.532Z,6.4
2019-05-01T05:18:03.438Z,6.4
2019-05-01T05:19:03.416Z,6.3
2019-05-01T05:20:03.452Z,6.4
2019-05-01T05:21:03.085Z,6.4
2019-05-01T05:22:03.422Z,6.4
2019-05-01T05:23:03.354Z,6.4
2019-05-01T05:24:03.268Z,6.4
2019-05-01T05:25:03.526Z,6.6
2019-05-01T05:26:02.969Z,6.6
2019-05-01T05:27:03.293Z,6.6
2019-05-01T05:28:02.875Z,6.6
2019-05-01T05:29:02.909Z,6.6
2019-05-01T05:30:03.046Z,6.8
2019-05-01T05:31:03.408Z,6.8
2019-05-01T05:32:03.030Z,6.8
2019-05-01T05:33:03.252Z,6.9
2019-05-01T05:34:03.154Z,6.9
2019-05-01T05:35:03.311Z,6.9
2019-05-01T05:36:02.910Z,7
2019-05-01T05:37:03.799Z,7.1
2019-05-01T05:38:02.981Z,7.1
2019-05-01T05:39:03.709Z,7.3
2019-05-01T05:40:03.824Z,7.3
2019-05-01T05:41:03.811Z,7.3
2019-05-01T05:42:03.230Z,7.1
2019-05-01T05:43:03.594Z,7.3
2019-05-01T05:44:02.922Z,7.4
2019-05-01T05:45:03.873Z,7.6
2019-05-01T05:46:03.663Z,7.8
2019-05-01T05:47:03.733Z,7.8
2019-05-01T05:48:03.700Z,7.8
2019-05-01T05:49:03.624Z,7.6
2019-05-01T05:50:03.688Z,7.5
2019-05-01T05:51:03.496Z,7.4
2019-05-01T05:52:03.477Z,7.4
2019-05-01T05:53:03.393Z,7.5
2019-05-01T05:54:03.406Z,7.8
2019-05-01T05:55:03.750Z,8
2019-05-01T05:56:03.071Z,8.1
2019-05-01T05:57:03.153Z,8.4
2019-05-01T05:58:02.971Z,8.4
2019-05-01T05:59:03.028Z,8.7
2019-05-01T06:00:03.105Z,8.3
2019-05-01T06:01:03.089Z,8.3
2019-05-01T06:02:03.291Z,8.3
2019-05-01T06:03:03.898Z,8.7
2019-05-01T06:04:02.941Z,9
2019-05-01T06:05:02.844Z,9.1
2019-05-01T06:06:03.224Z,9
2019-05-01T06:07:03.630Z,8.8
2019-05-01T06:08:03.655Z,9.2
2019-05-01T06:09:03.781Z,9.4
2019-05-01T06:10:03.684Z,9.4
2019-05-01T06:11:03.563Z,8.9
2019-05-01T06:12:10.044Z,8.7
2019-05-01T06:13:03.508Z,8.3
2019-05-01T06:14:03.659Z,8.3
2019-05-01T06:15:07.717Z,8.2
2019-05-01T06:16:03.614Z,8.2
2019-05-01T06:17:03.448Z,8.1
2019-05-01T06:18:06.016Z,8.1
2019-05-01T06:19:03.198Z,8.1
2019-05-01T06:20:03.019Z,8.1
2019-05-01T06:21:04.106Z,8.1
2019-05-01T06:22:11.509Z,8.1
2019-05-01T06:23:03.326Z,8.1
2019-05-01T06:24:07.088Z,8.2
2019-05-01T06:25:03.273Z,8.2
2019-05-01T06:26:03.047Z,8.2
2019-05-01T06:27:03.143Z,8.2
2019-05-01T06:28:02.897Z,8.4
2019-05-01T06:29:03.625Z,8.4
2019-05-01T06:30:12.580Z,8.4
2019-05-01T06:31:03.674Z,8.6
2019-05-01T06:32:03.688Z,8.6
2019-05-01T06:33:10.954Z,8.8
2019-05-01T06:34:03.644Z,9.1
2019-05-01T06:35:04.769Z,9.4
2019-05-01T06:36:03.619Z,10.1
2019-05-01T06:37:03.501Z,10.7
2019-05-01T06:38:03.580Z,10.7
2019-05-01T06:39:13.091Z,11.1
2019-05-01T06:40:03.525Z,11.3
2019-05-01T06:41:03.451Z,10.9
2019-05-01T06:42:02.714Z,10.2
2019-05-01T06:43:03.170Z,9.8
2019-05-01T06:44:07.671Z,9.8
2019-05-01T06:45:03.342Z,9.9
2019-05-01T06:46:03.011Z,10
2019-05-01T06:47:05.270Z,10.4
2019-05-01T06:48:02.832Z,10.9
2019-05-01T06:49:03.091Z,11.4
2019-05-01T06:50:07.677Z,12
2019-05-01T06:51:02.773Z,12.7
2019-05-01T06:52:02.960Z,12.6
2019-05-01T06:53:06.724Z,12.5
2019-05-01T06:54:02.973Z,12.4
2019-05-01T06:55:03.626Z,11.8
2019-05-01T06:56:03.567Z,11.6
2019-05-01T06:57:03.666Z,11.1
2019-05-01T06:58:03.461Z,10.6
2019-05-01T06:59:03.584Z,10.6
2019-05-01T07:00:09.540Z,10.8
2019-05-01T07:01:03.438Z,10.8
2019-05-01T07:02:03.801Z,10.8
2019-05-01T07:03:11.565Z,10.8
2019-05-01T07:04:04.251Z,10.5
2019-05-01T07:05:03.721Z,10.4
2019-05-01T07:06:14.713Z,10.5
2019-05-01T07:07:18.533Z,10.5
2019-05-01T07:08:03.558Z,10.5
2019-05-01T07:09:13.088Z,10.6
2019-05-01T07:10:03.105Z,10.5
2019-05-01T07:11:03.240Z,10.5
2019-05-01T07:12:03.231Z,10.5
2019-05-01T07:13:06.701Z,10.6
2019-05-01T07:14:03.065Z,10.6
2019-05-01T07:15:03.540Z,10.7
2019-05-01T07:16:03.461Z,10.8
2019-05-01T07:17:03.339Z,10.9
2019-05-01T07:18:03.037Z,10.9
2019-05-01T07:19:07.070Z,10.9
2019-05-01T07:20:03.104Z,11
2019-05-01T07:21:03.336Z,11.1
2019-05-01T07:22:07.532Z,11.1
2019-05-01T07:23:02.827Z,11.1
2019-05-01T07:24:02.925Z,11.1
2019-05-01T07:25:05.359Z,11.3
2019-05-01T07:26:03.236Z,11.3
2019-05-01T07:27:03.751Z,11.4
2019-05-01T07:28:02.843Z,11.4
2019-05-01T07:29:11.055Z,11.6
2019-05-01T07:30:02.757Z,11.6
2019-05-01T07:31:05.641Z,11.6
2019-05-01T07:32:07.629Z,11.6
2019-05-01T07:33:03.622Z,11.8
2019-05-01T07:34:17.122Z,11.7
2019-05-01T07:35:04.118Z,11.8
2019-05-01T07:36:16.389Z,11.9
2019-05-01T07:37:03.476Z,11.8
2019-05-01T07:38:03.603Z,11.9
2019-05-01T07:39:03.610Z,12.1
2019-05-01T07:40:03.300Z,11.9
2019-05-01T07:41:05.320Z,12.1
2019-05-01T07:42:03.548Z,12.3
2019-05-01T07:43:03.246Z,12.4
2019-05-01T07:44:02.960Z,12.4
2019-05-01T07:45:09.743Z,12.6
2019-05-01T07:46:03.278Z,12.6
2019-05-01T07:47:03.377Z,12.6
2019-05-01T07:48:06.920Z,12.6
2019-05-01T07:49:03.267Z,12.6
2019-05-01T07:50:03.572Z,12.6
2019-05-01T07:51:09.005Z,12.8
2019-05-01T07:52:03.508Z,12.8
2019-05-01T07:53:03.229Z,12.9
2019-05-01T07:54:09.039Z,12.9
2019-05-01T07:55:03.051Z,13.1
2019-05-01T07:56:03.336Z,13.1
2019-05-01T07:57:04.998Z,13.2
2019-05-01T07:58:03.040Z,13.2
2019-05-01T07:59:02.768Z,13.4
2019-05-01T08:00:08.648Z,13.4
2019-05-01T08:01:03.837Z,13.5
2019-05-01T08:02:03.701Z,13.6
2019-05-01T08:03:08.467Z,13.6
2019-05-01T08:04:02.459Z,13.8
2019-05-01T08:05:11.744Z,13.8
2019-05-01T08:06:03.193Z,13.9
2019-05-01T08:07:03.748Z,14.1
2019-05-01T08:08:09.697Z,14.1
2019-05-01T08:09:03.735Z,14.2
2019-05-01T08:10:03.727Z,14.3
2019-05-01T08:11:10.470Z,14.4
2019-05-01T08:12:03.600Z,14.7
2019-05-01T08:13:03.391Z,14.6
2019-05-01T08:14:16.010Z,14.5
2019-05-01T08:15:03.661Z,14.4
2019-05-01T08:16:08.902Z,14.5
2019-05-01T08:17:03.384Z,14.4
2019-05-01T08:18:03.424Z,14.6
2019-05-01T08:19:05.994Z,14.8
2019-05-01T08:20:03.370Z,14.8
2019-05-01T08:21:03.267Z,15
2019-05-01T08:22:03.264Z,15.2
2019-05-01T08:23:03.428Z,15.3
2019-05-01T08:24:03.231Z,15.3
2019-05-01T08:25:02.849Z,15
2019-05-01T08:26:10.259Z,15.3
2019-05-01T08:27:03.180Z,14.9
2019-05-01T08:28:03.709Z,15.1
2019-05-01T08:29:08.210Z,15.4
2019-05-01T08:30:03.004Z,15.5
2019-05-01T08:31:03.135Z,15.6
2019-05-01T08:32:04.787Z,15.8
2019-05-01T08:33:03.737Z,15.8
2019-05-01T08:34:03.635Z,15.8
2019-05-01T08:35:03.666Z,15.9
2019-05-01T08:36:13.364Z,16
2019-05-01T08:37:06.746Z,16.1
2019-05-01T08:38:03.508Z,15.7
2019-05-01T08:39:10.390Z,15.9
2019-05-01T08:40:03.497Z,16.2
2019-05-01T08:41:03.519Z,16.1
2019-05-01T08:42:08.262Z,15.9
2019-05-01T08:43:03.443Z,15.8
2019-05-01T08:44:03.626Z,16.1
2019-05-01T08:45:06.986Z,16
2019-05-01T08:46:03.206Z,15.9
2019-05-01T08:47:03.003Z,15.4
2019-05-01T08:48:03.171Z,15.4
2019-05-01T08:49:12.540Z,15.6
2019-05-01T08:50:03.451Z,15.6
2019-05-01T08:51:03.044Z,16.1
2019-05-01T08:52:13.846Z,16.1
2019-05-01T08:53:02.617Z,16.6
2019-05-01T08:54:03.413Z,16.8
2019-05-01T08:55:10.789Z,16.9
2019-05-01T08:56:02.946Z,16.4
2019-05-01T08:57:03.081Z,16.1
2019-05-01T08:58:02.902Z,16.8
2019-05-01T08:59:03.090Z,16.7
2019-05-01T09:00:03.947Z,16.6
2019-05-01T09:01:02.853Z,16.4
2019-05-01T09:02:10.053Z,16.2
2019-05-01T09:03:09.025Z,16.6
2019-05-01T09:04:13.606Z,16.8
2019-05-01T09:05:29.940Z,16.8
2019-05-01T09:07:03.624Z,16.4
2019-05-01T09:08:03.356Z,16.6
2019-05-01T09:09:10.139Z,16.4
2019-05-01T09:10:03.264Z,16
2019-05-01T09:11:03.314Z,16
2019-05-01T09:12:13.460Z,15.8
2019-05-01T09:13:03.269Z,15.6
2019-05-01T09:14:03.583Z,15.8
2019-05-01T09:15:14.565Z,15.8
2019-05-01T09:16:03.485Z,15.9
2019-05-01T09:17:03.151Z,15.9
2019-05-01T09:18:03.314Z,16.3
2019-05-01T09:19:03.356Z,16.2
2019-05-01T09:20:03.490Z,16
2019-05-01T09:21:03.432Z,15.9
2019-05-01T09:22:03.280Z,15.9
2019-05-01T09:23:03.393Z,15.9
2019-05-01T09:24:02.871Z,15.9
2019-05-01T09:25:03.769Z,16.1
2019-05-01T09:26:16.275Z,16.3
2019-05-01T09:27:02.979Z,16.4
2019-05-01T09:28:06.117Z,16.4
2019-05-01T09:29:03.004Z,16.8
2019-05-01T09:30:04.693Z,17.1
2019-05-01T09:31:03.645Z,17
2019-05-01T09:32:11.840Z,17.4
2019-05-01T09:33:03.064Z,17.3
2019-05-01T09:34:03.592Z,17.4
2019-05-01T09:35:16.708Z,17
2019-05-01T09:36:03.410Z,16.8
2019-05-01T09:37:03.221Z,17.4
2019-05-01T09:38:03.604Z,17.6
2019-05-01T09:39:03.838Z,17.9
2019-05-01T09:40:10.257Z,18.1
2019-05-01T09:41:03.484Z,18.3
2019-05-01T09:42:06.848Z,18.3
2019-05-01T09:43:03.598Z,18.4
2019-05-01T09:44:11.995Z,18.6
2019-05-01T09:45:03.393Z,18.7
2019-05-01T09:46:03.509Z,18.1
2019-05-01T09:47:03.358Z,17.2
2019-05-01T09:48:02.218Z,16.4
2019-05-01T09:49:03.493Z,16.3
2019-05-01T09:50:03.504Z,16
2019-05-01T09:51:06.769Z,15.9
2019-05-01T09:52:03.035Z,15.8
2019-05-01T09:53:03.144Z,15.9
2019-05-01T09:54:10.941Z,16.3
2019-05-01T09:55:03.019Z,16.4
2019-05-01T09:56:09.179Z,16.7
2019-05-01T09:57:03.164Z,16.9
2019-05-01T09:58:03.114Z,17.4
2019-05-01T09:59:02.609Z,17.6
2019-05-01T10:00:02.679Z,17.1
2019-05-01T10:01:03.197Z,16.5
2019-05-01T10:02:09.226Z,16.3
2019-05-01T10:03:03.088Z,16.1
2019-05-01T10:04:05.815Z,16.1
2019-05-01T10:05:08.052Z,16.3
2019-05-01T10:06:03.768Z,16.5
2019-05-01T10:07:03.367Z,16.6
2019-05-01T10:08:05.607Z,17
2019-05-01T10:09:03.647Z,17
2019-05-01T10:10:03.512Z,16.8
2019-05-01T10:11:07.057Z,16.3
2019-05-01T10:12:03.394Z,16.4
2019-05-01T10:13:03.242Z,16.3
2019-05-01T10:14:04.334Z,16.3
2019-05-01T10:15:03.773Z,16.3
2019-05-01T10:16:03.202Z,16.2
2019-05-01T10:17:03.378Z,16.1
2019-05-01T10:18:03.290Z,16.1
2019-05-01T10:19:03.260Z,16.1
2019-05-01T10:20:02.873Z,16
2019-05-01T10:21:02.989Z,15.9
2019-05-01T10:22:03.911Z,15.8
2019-05-01T10:23:02.786Z,15.8
2019-05-01T10:24:02.857Z,15.7
2019-05-01T10:25:02.804Z,15.6
2019-05-01T10:26:03.061Z,15.7
2019-05-01T10:27:02.814Z,15.8
2019-05-01T10:28:16.006Z,15.9
2019-05-01T10:29:03.366Z,15.8
2019-05-01T10:30:03.567Z,15.6
2019-05-01T10:31:13.111Z,15.7
2019-05-01T10:32:03.259Z,15.6
2019-05-01T10:33:03.395Z,15.4
2019-05-01T10:34:09.236Z,15.6
2019-05-01T10:35:03.314Z,15.4
2019-05-01T10:36:03.387Z,15.4
2019-05-01T10:37:03.655Z,15.4
2019-05-01T10:38:10.656Z,15.4
2019-05-01T10:39:03.357Z,15.4
2019-05-01T10:40:03.571Z,15.4
2019-05-01T10:41:10.502Z,15.4
2019-05-01T10:42:03.134Z,15.3
2019-05-01T10:43:02.973Z,15.5
2019-05-01T10:44:03.176Z,15.6
2019-05-01T10:45:03.388Z,15.7
2019-05-01T10:46:02.591Z,15.8
2019-05-01T10:47:02.881Z,15.8
2019-05-01T10:48:02.940Z,16
2019-05-01T10:49:02.871Z,16.1
2019-05-01T10:50:04.072Z,16.3
2019-05-01T10:51:03.579Z,16.4
2019-05-01T10:52:14.772Z,16.6
2019-05-01T10:53:03.506Z,16.9
2019-05-01T10:54:03.605Z,17.1
2019-05-01T10:55:03.799Z,17.1
2019-05-01T10:56:03.573Z,17
2019-05-01T10:57:04.740Z,16.8
2019-05-01T10:58:04.004Z,16.7
2019-05-01T10:59:03.394Z,16.6
2019-05-01T11:00:03.758Z,16.5
2019-05-01T11:01:03.557Z,16.3
2019-05-01T11:02:03.550Z,16.4
2019-05-01T11:03:03.238Z,16.7
2019-05-01T11:04:03.375Z,16.8
2019-05-01T11:05:03.440Z,16.8
2019-05-01T11:06:02.903Z,16.7
2019-05-01T11:07:03.428Z,16.6
2019-05-01T11:08:03.263Z,16.6
2019-05-01T11:09:03.348Z,16.5
2019-05-01T11:10:02.923Z,16.8
2019-05-01T11:11:03.051Z,16.9
2019-05-01T11:12:03.410Z,16.9
2019-05-01T11:13:03.190Z,16.9
2019-05-01T11:14:03.866Z,16.9
2019-05-01T11:15:03.970Z,17.3
2019-05-01T11:16:03.012Z,17.2
2019-05-01T11:17:03.442Z,17.1
2019-05-01T11:18:03.105Z,16.9
2019-05-01T11:19:03.782Z,16.8
2019-05-01T11:20:02.959Z,16.8
2019-05-01T11:21:03.654Z,17
2019-05-01T11:22:03.635Z,16.9
2019-05-01T11:23:03.541Z,16.8
2019-05-01T11:24:03.571Z,16.9
2019-05-01T11:25:03.650Z,16.8
2019-05-01T11:26:03.287Z,16.7
2019-05-01T11:27:03.352Z,16.7
2019-05-01T11:28:03.246Z,16.6
2019-05-01T11:29:03.366Z,16.6
2019-05-01T11:30:03.241Z,16.6
2019-05-01T11:31:02.951Z,16.6
2019-05-01T11:32:03.173Z,16.6
2019-05-01T11:33:03.453Z,16.6
2019-05-01T11:34:03.009Z,16.5
2019-05-01T11:35:03.144Z,16.4
2019-05-01T11:36:10.098Z,16.4
2019-05-01T11:37:03.030Z,16.5
2019-05-01T11:38:04.283Z,16.4
2019-05-01T11:39:03.782Z,16.5
2019-05-01T11:40:03.189Z,16.6
2019-05-01T11:41:03.626Z,16.8
2019-05-01T11:42:03.012Z,16.8
2019-05-01T11:43:03.624Z,16.8
2019-05-01T11:44:03.071Z,17.1
2019-05-01T11:45:03.689Z,17.3
2019-05-01T11:46:03.831Z,17.1
2019-05-01T11:47:03.771Z,16.9
2019-05-01T11:48:03.422Z,17.1
2019-05-01T11:49:03.863Z,17.1
2019-05-01T11:50:03.696Z,17.2
2019-05-01T11:51:03.682Z,17.1
2019-05-01T11:52:03.333Z,17.1
2019-05-01T11:53:03.710Z,17.2
2019-05-01T11:54:03.101Z,17.2
2019-05-01T11:55:03.562Z,17.3
2019-05-01T11:56:03.478Z,17.3
2019-05-01T11:57:03.388Z,17.3
2019-05-01T11:58:03.479Z,17.6
2019-05-01T11:59:03.212Z,17.3
2019-05-01T12:00:03.246Z,17.2
2019-05-01T12:01:03.271Z,17
2019-05-01T12:02:03.597Z,16.9
2019-05-01T12:03:03.036Z,17
2019-05-01T12:04:02.972Z,16.9
2019-05-01T12:05:03.052Z,16.7
2019-05-01T12:06:02.993Z,16.6
2019-05-01T12:07:02.901Z,16.7
2019-05-01T12:08:03.197Z,16.6
2019-05-01T12:09:02.921Z,16.7
2019-05-01T12:10:03.272Z,16.9
2019-05-01T12:11:03.143Z,16.9
2019-05-01T12:12:03.172Z,16.9
2019-05-01T12:13:03.352Z,17.3
2019-05-01T12:14:03.170Z,17.6
2019-05-01T12:15:03.445Z,17.7
2019-05-01T12:16:03.223Z,18
2019-05-01T12:17:03.514Z,18.1
2019-05-01T12:18:03.046Z,18.3
2019-05-01T12:19:02.853Z,18.1
2019-05-01T12:20:03.031Z,17.8
2019-05-01T12:21:02.933Z,17.4
2019-05-01T12:22:02.639Z,17.3
2019-05-01T12:23:03.344Z,17.1
2019-05-01T12:24:03.023Z,17
2019-05-01T12:25:03.219Z,17
2019-05-01T12:26:03.102Z,16.5
2019-05-01T12:27:02.726Z,16.4
2019-05-01T12:28:03.070Z,16.4
2019-05-01T12:29:03.857Z,16.3
2019-05-01T12:30:02.955Z,16.4
2019-05-01T12:31:03.804Z,16.4
2019-05-01T12:32:03.787Z,16.6
2019-05-01T12:33:03.338Z,16.6
2019-05-01T12:34:03.670Z,16.6
2019-05-01T12:35:03.736Z,16.6
2019-05-01T12:36:03.513Z,16.5
2019-05-01T12:37:03.485Z,16.3
2019-05-01T12:38:03.608Z,16.3
2019-05-01T12:39:03.692Z,16.3
2019-05-01T12:40:03.366Z,16.2
2019-05-01T12:41:03.471Z,16.3
2019-05-01T12:42:03.191Z,16.4
2019-05-01T12:43:03.240Z,16.3
2019-05-01T12:44:03.185Z,16.2
2019-05-01T12:45:03.189Z,16
2019-05-01T12:46:03.228Z,16
2019-05-01T12:47:03.200Z,16
2019-05-01T12:48:03.427Z,16.1
2019-05-01T12:49:03.341Z,16
2019-05-01T12:50:03.279Z,16
2019-05-01T12:51:02.961Z,16.1
2019-05-01T12:52:11.023Z,16.1
2019-05-01T12:53:03.040Z,16.1
2019-05-01T12:54:03.856Z,16.1
2019-05-01T12:55:03.069Z,16.2
2019-05-01T12:56:03.336Z,16.3
2019-05-01T12:57:03.684Z,16.1
2019-05-01T12:58:02.858Z,16.1
2019-05-01T12:59:03.826Z,16
2019-05-01T13:00:09.495Z,16.1
2019-05-01T13:01:03.574Z,16.3
2019-05-01T13:02:03.859Z,16.4
2019-05-01T13:03:03.515Z,16.4
2019-05-01T13:04:03.737Z,16.4
2019-05-01T13:05:03.792Z,16.4
2019-05-01T13:06:03.026Z,16.4
2019-05-01T13:07:03.358Z,16.5
2019-05-01T13:08:02.870Z,16.7
2019-05-01T13:09:03.517Z,16.7
2019-05-01T13:10:03.353Z,16.7
2019-05-01T13:11:03.086Z,16.6
2019-05-01T13:12:03.257Z,16.6
2019-05-01T13:13:03.366Z,16.7
2019-05-01T13:14:03.166Z,16.9
2019-05-01T13:15:03.481Z,17
2019-05-01T13:16:03.032Z,17.2
2019-05-01T13:17:03.512Z,17.4
2019-05-01T13:18:03.086Z,17.3
2019-05-01T13:19:03.031Z,17.3
2019-05-01T13:20:03.808Z,17.3
2019-05-01T13:21:02.864Z,17.2
2019-05-01T13:22:05.536Z,17
2019-05-01T13:23:03.747Z,16.9
2019-05-01T13:24:02.935Z,16.9
2019-05-01T13:25:03.823Z,16.8
2019-05-01T13:26:02.903Z,16.6
2019-05-01T13:27:03.764Z,16.6
2019-05-01T13:28:03.305Z,16.7
2019-05-01T13:29:03.558Z,16.7
2019-05-01T13:30:03.582Z,16.7
2019-05-01T13:31:03.215Z,16.6
2019-05-01T13:32:03.646Z,16.7
2019-05-01T13:33:03.360Z,16.6
2019-05-01T13:34:03.091Z,16.6
2019-05-01T13:35:03.249Z,16.6
2019-05-01T13:36:03.072Z,16.6